createdAt,value
2023-02-23T00:00:12.979Z,4.40
2023-02-23T00:01:12.992Z,4.48
2023-02-23T00:02:13.028Z,4.45
2023-02-23T00:03:13.022Z,4.46
2023-02-23T00:04:13.022Z,4.57
2023-02-23T00:05:13.039Z,4.52
2023-02-23T00:06:13.044Z,4.48
2023-02-23T00:07:13.064Z,4.52
2023-02-23T00:08:13.061Z,4.58
2023-02-23T00:09:13.070Z,4.52
2023-02-23T00:10:13.082Z,4.48
2023-02-23T00:11:13.091Z,4.56
2023-02-23T00:12:13.102Z,4.52
2023-02-23T00:13:13.115Z,4.52
2023-02-23T00:14:13.129Z,4.53
2023-02-23T00:15:13.132Z,4.53
2023-02-23T00:16:13.161Z,4.50
2023-02-23T00:17:13.154Z,4.56
2023-02-23T00:18:13.165Z,4.58
2023-02-23T00:19:13.209Z,4.45
2023-02-23T00:20:13.189Z,4.52
2023-02-23T00:21:13.191Z,4.57
2023-02-23T00:22:13.206Z,4.52
2023-02-23T00:23:13.212Z,4.56
2023-02-23T00:24:13.225Z,4.56
2023-02-23T00:25:13.238Z,4.49
2023-02-23T00:26:13.248Z,4.49
2023-02-23T00:27:13.258Z,4.48
2023-02-23T00:28:13.265Z,4.49
2023-02-23T00:29:13.279Z,4.52
2023-02-23T00:30:13.285Z,4.49
2023-02-23T00:31:13.343Z,4.49
2023-02-23T00:32:13.369Z,4.53
2023-02-23T00:33:13.321Z,4.52
2023-02-23T00:34:13.332Z,4.53
2023-02-23T00:35:13.339Z,4.57
2023-02-23T00:36:13.350Z,4.48
2023-02-23T00:37:13.356Z,4.53
2023-02-23T00:38:13.372Z,4.50
2023-02-23T00:39:13.380Z,4.50
2023-02-23T00:40:13.391Z,4.52
2023-02-23T00:41:14.504Z,4.46
2023-02-23T00:42:13.409Z,4.46
2023-02-23T00:43:13.419Z,4.53
2023-02-23T00:44:13.430Z,4.46
2023-02-23T00:45:13.438Z,4.52
2023-02-23T00:46:13.506Z,4.46
2023-02-23T00:47:13.460Z,4.49
2023-02-23T00:48:13.473Z,4.52
2023-02-23T00:49:13.487Z,4.56
2023-02-23T00:50:13.492Z,4.52
2023-02-23T00:51:13.502Z,4.58
2023-02-23T00:52:13.511Z,4.56
2023-02-23T00:53:13.525Z,4.50
2023-02-23T00:54:13.538Z,4.53
2023-02-23T00:55:13.556Z,4.48
2023-02-23T00:56:13.564Z,4.50
2023-02-23T00:57:13.562Z,4.57
2023-02-23T00:58:13.575Z,4.56
2023-02-23T00:59:13.579Z,4.57
2023-02-23T01:00:13.597Z,4.53
2023-02-23T01:01:13.615Z,4.60
2023-02-23T01:02:13.654Z,4.63
2023-02-23T01:03:13.621Z,4.66
2023-02-23T01:04:13.633Z,4.58
2023-02-23T01:05:13.644Z,4.58
2023-02-23T01:06:13.652Z,4.58
2023-02-23T01:07:13.662Z,4.61
2023-02-23T01:08:13.673Z,4.58
2023-02-23T01:09:13.721Z,4.56
2023-02-23T01:10:13.688Z,4.63
2023-02-23T01:11:13.701Z,4.64
2023-02-23T01:12:13.708Z,4.60
2023-02-23T01:13:13.732Z,4.63
2023-02-23T01:14:13.741Z,4.57
2023-02-23T01:15:13.738Z,4.57
2023-02-23T01:16:13.748Z,4.53
2023-02-23T01:17:13.761Z,4.58
2023-02-23T01:18:13.768Z,4.60
2023-02-23T01:19:13.782Z,4.60
2023-02-23T01:20:13.787Z,4.61
2023-02-23T01:21:13.798Z,4.58
2023-02-23T01:22:13.815Z,4.52
2023-02-23T01:23:13.844Z,4.63
2023-02-23T01:24:13.858Z,4.58
2023-02-23T01:25:13.837Z,4.56
2023-02-23T01:26:13.850Z,4.61
2023-02-23T01:27:13.860Z,4.60
2023-02-23T01:28:13.870Z,4.53
2023-02-23T01:29:13.876Z,4.50
2023-02-23T01:30:13.890Z,4.53
2023-02-23T01:31:14.036Z,4.57
2023-02-23T01:32:13.997Z,4.57
2023-02-23T01:33:13.923Z,4.57
2023-02-23T01:34:13.932Z,4.52
2023-02-23T01:35:13.955Z,4.56
2023-02-23T01:36:13.948Z,4.48
2023-02-23T01:37:13.968Z,4.52
2023-02-23T01:38:13.971Z,4.52
2023-02-23T01:39:13.983Z,4.50
2023-02-23T01:40:13.991Z,4.50
2023-02-23T01:41:14.000Z,4.56
2023-02-23T01:42:14.019Z,4.58
2023-02-23T01:43:14.034Z,4.48
2023-02-23T01:44:14.031Z,4.58
2023-02-23T01:45:14.043Z,4.48
2023-02-23T01:46:14.074Z,4.48
2023-02-23T01:47:14.065Z,4.50
2023-02-23T01:48:14.071Z,4.56
2023-02-23T01:49:14.081Z,4.50
2023-02-23T01:50:14.093Z,4.42
2023-02-23T01:51:14.100Z,4.48
2023-02-23T01:52:14.111Z,4.52
2023-02-23T01:53:14.121Z,4.49
2023-02-23T01:54:14.134Z,4.46
2023-02-23T01:55:14.141Z,4.45
2023-02-23T01:56:14.152Z,4.40
2023-02-23T01:57:14.169Z,4.46
2023-02-23T01:58:14.175Z,4.45
2023-02-23T01:59:14.184Z,4.45
2023-02-23T02:00:14.202Z,4.48
2023-02-23T02:01:14.247Z,4.50
2023-02-23T02:02:14.232Z,4.46
2023-02-23T02:03:14.231Z,4.46
2023-02-23T02:04:14.231Z,4.46
2023-02-23T02:05:14.314Z,4.52
2023-02-23T02:06:14.261Z,4.48
2023-02-23T02:07:14.270Z,4.43
2023-02-23T02:08:14.274Z,4.39
2023-02-23T02:09:14.282Z,4.46
2023-02-23T02:10:14.297Z,4.40
2023-02-23T02:11:14.303Z,4.42
2023-02-23T02:12:14.313Z,4.45
2023-02-23T02:13:14.328Z,4.48
2023-02-23T02:14:14.359Z,4.46
2023-02-23T02:15:14.343Z,4.43
2023-02-23T02:16:14.420Z,4.42
2023-02-23T02:17:14.369Z,4.38
2023-02-23T02:18:14.372Z,4.39
2023-02-23T02:19:14.381Z,4.42
2023-02-23T02:20:14.393Z,4.42
2023-02-23T02:21:14.402Z,4.39
2023-02-23T02:22:14.414Z,4.40
2023-02-23T02:23:14.423Z,4.40
2023-02-23T02:24:14.436Z,4.43
2023-02-23T02:25:14.500Z,4.38
2023-02-23T02:26:14.460Z,4.39
2023-02-23T02:27:14.467Z,4.30
2023-02-23T02:28:14.473Z,4.42
2023-02-23T02:29:14.482Z,4.45
2023-02-23T02:30:14.509Z,4.30
2023-02-23T02:31:14.519Z,4.31
2023-02-23T02:32:14.563Z,4.39
2023-02-23T02:33:14.524Z,4.27
2023-02-23T02:34:14.535Z,4.30
2023-02-23T02:35:14.549Z,4.34
2023-02-23T02:36:14.560Z,4.36
2023-02-23T02:37:14.566Z,4.34
2023-02-23T02:38:14.578Z,4.30
2023-02-23T02:39:14.585Z,4.36
2023-02-23T02:40:14.593Z,4.39
2023-02-23T02:41:14.606Z,4.32
2023-02-23T02:42:14.622Z,4.36
2023-02-23T02:43:14.630Z,4.38
2023-02-23T02:44:14.648Z,4.34
2023-02-23T02:45:14.649Z,4.32
2023-02-23T02:46:14.744Z,4.28
2023-02-23T02:47:14.681Z,4.31
2023-02-23T02:48:14.675Z,4.27
2023-02-23T02:49:14.690Z,4.40
2023-02-23T02:50:14.704Z,4.38
2023-02-23T02:51:14.705Z,4.36
2023-02-23T02:52:14.718Z,4.32
2023-02-23T02:53:14.730Z,4.34
2023-02-23T02:54:14.738Z,4.31
2023-02-23T02:55:14.747Z,4.40
2023-02-23T02:56:14.759Z,4.32
2023-02-23T02:57:14.768Z,4.36
2023-02-23T02:58:14.778Z,4.32
2023-02-23T02:59:14.786Z,4.42
2023-02-23T03:00:14.794Z,4.31
2023-02-23T03:01:14.836Z,4.38
2023-02-23T03:02:14.822Z,4.22
2023-02-23T03:03:14.827Z,4.32
2023-02-23T03:04:14.843Z,4.30
2023-02-23T03:05:14.959Z,4.20
2023-02-23T03:06:14.861Z,4.36
2023-02-23T03:07:14.870Z,4.32
2023-02-23T03:08:14.881Z,4.38
2023-02-23T03:09:14.891Z,4.30
2023-02-23T03:10:14.906Z,4.39
2023-02-23T03:11:14.910Z,4.31
2023-02-23T03:12:14.928Z,4.40
2023-02-23T03:13:14.933Z,4.27
2023-02-23T03:14:14.937Z,4.24
2023-02-23T03:15:14.949Z,4.27
2023-02-23T03:16:14.978Z,4.28
2023-02-23T03:17:14.968Z,4.36
2023-02-23T03:18:14.983Z,4.30
2023-02-23T03:19:14.987Z,4.31
2023-02-23T03:20:15.001Z,4.36
2023-02-23T03:21:15.008Z,4.25
2023-02-23T03:22:15.020Z,4.27
2023-02-23T03:23:15.034Z,4.32
2023-02-23T03:24:15.038Z,4.28
2023-02-23T03:25:15.047Z,4.24
2023-02-23T03:26:15.057Z,4.21
2023-02-23T03:27:15.067Z,4.24
2023-02-23T03:28:15.076Z,4.20
2023-02-23T03:29:15.088Z,4.24
2023-02-23T03:30:15.118Z,4.25
2023-02-23T03:31:15.145Z,4.27
2023-02-23T03:32:15.178Z,4.22
2023-02-23T03:33:15.135Z,4.24
2023-02-23T03:34:15.149Z,4.22
2023-02-23T03:35:15.160Z,4.20
2023-02-23T03:36:15.160Z,4.16
2023-02-23T03:37:15.165Z,4.20
2023-02-23T03:38:15.176Z,4.04
2023-02-23T03:39:15.186Z,4.13
2023-02-23T03:40:15.240Z,4.03
2023-02-23T03:41:15.208Z,4.16
2023-02-23T03:42:15.214Z,4.07
2023-02-23T03:43:15.234Z,4.04
2023-02-23T03:44:15.234Z,4.06
2023-02-23T03:45:15.244Z,4.03
2023-02-23T03:46:15.255Z,4.03
2023-02-23T03:47:15.264Z,3.99
2023-02-23T03:48:15.274Z,4.00
2023-02-23T03:49:15.283Z,4.03
2023-02-23T03:50:15.293Z,4.03
2023-02-23T03:51:15.310Z,3.89
2023-02-23T03:52:15.322Z,3.91
2023-02-23T03:53:15.322Z,3.91
2023-02-23T03:54:15.330Z,3.86
2023-02-23T03:55:15.343Z,3.89
2023-02-23T03:56:15.355Z,3.86
2023-02-23T03:57:15.357Z,3.92
2023-02-23T03:58:15.368Z,3.84
2023-02-23T03:59:15.378Z,3.81
2023-02-23T04:00:15.392Z,3.78
2023-02-23T04:01:15.397Z,3.68
2023-02-23T04:02:15.433Z,3.76
2023-02-23T04:03:15.447Z,3.81
2023-02-23T04:04:15.424Z,3.78
2023-02-23T04:05:15.436Z,3.68
2023-02-23T04:06:15.447Z,3.70
2023-02-23T04:07:15.457Z,3.73
2023-02-23T04:08:15.468Z,3.76
2023-02-23T04:09:15.503Z,3.71
2023-02-23T04:10:15.489Z,3.73
2023-02-23T04:11:15.490Z,3.61
2023-02-23T04:12:15.507Z,3.64
2023-02-23T04:13:15.528Z,3.66
2023-02-23T04:14:15.520Z,3.52
2023-02-23T04:15:15.529Z,3.66
2023-02-23T04:16:15.548Z,3.53
2023-02-23T04:17:15.551Z,3.49
2023-02-23T04:18:15.557Z,3.49
2023-02-23T04:19:15.565Z,3.58
2023-02-23T04:20:15.579Z,3.49
2023-02-23T04:21:15.586Z,3.50
2023-02-23T04:22:15.595Z,3.52
2023-02-23T04:23:15.604Z,3.50
2023-02-23T04:24:15.616Z,3.45
2023-02-23T04:25:17.265Z,3.46
2023-02-23T04:26:15.637Z,3.37
2023-02-23T04:27:15.646Z,3.37
2023-02-23T04:28:15.665Z,3.40
2023-02-23T04:29:15.661Z,3.34
2023-02-23T04:30:15.670Z,3.40
2023-02-23T04:31:15.680Z,3.45
2023-02-23T04:32:15.852Z,3.40
2023-02-23T04:33:15.699Z,3.36
2023-02-23T04:34:15.715Z,3.22
2023-02-23T04:35:15.718Z,3.36
2023-02-23T04:36:15.728Z,3.34
2023-02-23T04:37:15.741Z,3.33
2023-02-23T04:38:15.756Z,3.29
2023-02-23T04:39:15.761Z,3.37
2023-02-23T04:40:15.771Z,3.27
2023-02-23T04:41:15.808Z,3.26
2023-02-23T04:42:15.785Z,3.24
2023-02-23T04:43:15.798Z,3.24
2023-02-23T04:44:15.805Z,3.18
2023-02-23T04:45:15.821Z,3.21
2023-02-23T04:46:15.855Z,3.16
2023-02-23T04:47:15.836Z,3.22
2023-02-23T04:48:15.845Z,3.19
2023-02-23T04:49:15.862Z,3.26
2023-02-23T04:50:15.864Z,3.19
2023-02-23T04:51:15.975Z,3.16
2023-02-23T04:52:15.880Z,3.27
2023-02-23T04:53:15.887Z,3.05
2023-02-23T04:54:15.900Z,3.16
2023-02-23T04:55:15.905Z,3.12
2023-02-23T04:56:15.924Z,3.15
2023-02-23T04:57:15.925Z,3.12
2023-02-23T04:58:15.938Z,3.13
2023-02-23T04:59:15.946Z,3.16
2023-02-23T05:00:15.954Z,3.11
2023-02-23T05:01:16.050Z,3.06
2023-02-23T05:02:15.972Z,3.08
2023-02-23T05:03:15.982Z,3.11
2023-02-23T05:04:15.994Z,3.13
2023-02-23T05:05:16.012Z,3.08
2023-02-23T05:06:16.016Z,3.12
2023-02-23T05:07:16.017Z,3.05
2023-02-23T05:08:16.027Z,3.13
2023-02-23T05:09:16.036Z,3.09
2023-02-23T05:10:16.057Z,3.06
2023-02-23T05:11:16.129Z,3.11
2023-02-23T05:12:16.065Z,3.08
2023-02-23T05:13:16.072Z,3.05
2023-02-23T05:14:16.081Z,3.16
2023-02-23T05:15:16.090Z,3.09
2023-02-23T05:16:16.125Z,3.05
2023-02-23T05:17:16.108Z,3.05
2023-02-23T05:18:16.122Z,3.05
2023-02-23T05:19:16.137Z,3.01
2023-02-23T05:20:16.149Z,3.03
2023-02-23T05:21:16.212Z,3.03
2023-02-23T05:22:16.159Z,3.03
2023-02-23T05:23:16.172Z,3.05
2023-02-23T05:24:16.182Z,3.09
2023-02-23T05:25:16.184Z,2.97
2023-02-23T05:26:16.191Z,3.03
2023-02-23T05:27:16.199Z,3.08
2023-02-23T05:28:16.215Z,3.05
2023-02-23T05:29:16.224Z,2.97
2023-02-23T05:30:16.232Z,2.93
2023-02-23T05:31:16.414Z,2.97
2023-02-23T05:32:16.349Z,2.91
2023-02-23T05:33:18.209Z,2.98
2023-02-23T05:34:16.267Z,3.03
2023-02-23T05:35:16.272Z,2.88
2023-02-23T05:36:16.287Z,3.00
2023-02-23T05:37:16.294Z,3.00
2023-02-23T05:38:16.300Z,2.93
2023-02-23T05:39:16.307Z,2.97
2023-02-23T05:40:16.320Z,3.01
2023-02-23T05:41:16.377Z,2.97
2023-02-23T05:42:16.338Z,3.08
2023-02-23T05:43:16.341Z,2.85
2023-02-23T05:44:16.352Z,2.87
2023-02-23T05:45:16.366Z,2.87
2023-02-23T05:46:16.436Z,2.93
2023-02-23T05:47:16.378Z,3.00
2023-02-23T05:48:16.388Z,2.90
2023-02-23T05:49:16.395Z,2.94
2023-02-23T05:50:16.409Z,2.93
2023-02-23T05:51:16.497Z,2.94
2023-02-23T05:52:16.424Z,2.87
2023-02-23T05:53:16.449Z,2.91
2023-02-23T05:54:16.444Z,2.87
2023-02-23T05:55:16.457Z,2.97
2023-02-23T05:56:16.458Z,2.97
2023-02-23T05:57:16.473Z,2.93
2023-02-23T05:58:16.484Z,2.85
2023-02-23T05:59:16.500Z,2.87
2023-02-23T06:00:16.520Z,2.88
2023-02-23T06:01:16.696Z,2.87
2023-02-23T06:02:16.543Z,2.90
2023-02-23T06:03:16.521Z,2.90
2023-02-23T06:04:16.531Z,2.87
2023-02-23T06:05:16.540Z,2.82
2023-02-23T06:06:16.556Z,2.83
2023-02-23T06:07:16.558Z,2.90
2023-02-23T06:08:16.567Z,2.83
2023-02-23T06:09:16.583Z,2.69
2023-02-23T06:10:16.582Z,2.76
2023-02-23T06:11:16.721Z,2.73
2023-02-23T06:12:16.603Z,2.69
2023-02-23T06:13:16.615Z,2.70
2023-02-23T06:14:16.631Z,2.76
2023-02-23T06:15:16.634Z,2.69
2023-02-23T06:16:16.795Z,2.65
2023-02-23T06:17:16.647Z,2.64
2023-02-23T06:18:16.660Z,2.68
2023-02-23T06:19:16.664Z,2.59
2023-02-23T06:20:16.674Z,2.68
2023-02-23T06:21:16.754Z,2.64
2023-02-23T06:22:16.693Z,2.68
2023-02-23T06:23:16.703Z,2.65
2023-02-23T06:24:16.714Z,2.59
2023-02-23T06:25:16.724Z,2.58
2023-02-23T06:26:16.731Z,2.64
2023-02-23T06:27:16.735Z,2.51
2023-02-23T06:28:16.744Z,2.52
2023-02-23T06:29:16.755Z,2.62
2023-02-23T06:30:16.773Z,2.54
2023-02-23T06:31:17.022Z,2.62
2023-02-23T06:32:16.921Z,2.54
2023-02-23T06:33:16.792Z,2.65
2023-02-23T06:34:16.801Z,2.65
2023-02-23T06:35:16.807Z,2.68
2023-02-23T06:36:16.821Z,2.68
2023-02-23T06:37:16.830Z,2.62
2023-02-23T06:38:16.833Z,2.70
2023-02-23T06:39:16.852Z,2.73
2023-02-23T06:40:16.853Z,2.72
2023-02-23T06:41:17.140Z,2.76
2023-02-23T06:42:16.876Z,2.73
2023-02-23T06:43:16.889Z,2.75
2023-02-23T06:44:16.889Z,2.83
2023-02-23T06:45:16.899Z,2.83
2023-02-23T06:46:16.934Z,2.82
2023-02-23T06:47:16.916Z,2.87
2023-02-23T06:48:16.936Z,2.88
2023-02-23T06:49:16.935Z,2.97
2023-02-23T06:50:16.943Z,3.05
2023-02-23T06:51:17.267Z,3.01
2023-02-23T06:52:16.960Z,2.93
2023-02-23T06:53:16.972Z,3.05
2023-02-23T06:54:16.989Z,3.08
2023-02-23T06:55:16.990Z,3.08
2023-02-23T06:56:17.010Z,3.09
2023-02-23T06:57:17.009Z,3.06
2023-02-23T06:58:17.018Z,3.09
2023-02-23T06:59:17.029Z,3.15
2023-02-23T07:00:17.038Z,3.09
2023-02-23T07:01:17.287Z,3.15
2023-02-23T07:02:17.059Z,3.24
2023-02-23T07:03:17.061Z,3.22
2023-02-23T07:06:00.477Z,3.26
2023-02-23T07:07:00.479Z,3.34
2023-02-23T07:08:00.473Z,3.48
2023-02-23T07:09:00.473Z,3.36
2023-02-23T07:10:00.477Z,3.49
2023-02-23T07:11:00.488Z,3.49
2023-02-23T07:12:00.499Z,3.49
2023-02-23T07:13:00.548Z,3.53
2023-02-23T07:14:00.516Z,3.63
2023-02-23T07:15:00.524Z,3.61
2023-02-23T07:16:00.596Z,3.68
2023-02-23T07:17:00.549Z,3.63
2023-02-23T07:18:00.554Z,3.77
2023-02-23T07:19:00.571Z,3.76
2023-02-23T07:20:00.573Z,3.77
2023-02-23T07:21:00.585Z,3.88
2023-02-23T07:22:00.602Z,3.89
2023-02-23T07:23:00.663Z,3.94
2023-02-23T07:24:00.920Z,3.95
2023-02-23T07:25:00.626Z,3.89
2023-02-23T07:26:00.635Z,3.99
2023-02-23T07:27:00.655Z,4.04
2023-02-23T07:28:00.664Z,4.03
2023-02-23T07:29:00.664Z,4.10
2023-02-23T07:30:00.707Z,4.00
2023-02-23T07:31:00.735Z,4.12
2023-02-23T07:32:00.842Z,4.21
2023-02-23T07:33:00.709Z,4.10
2023-02-23T07:34:00.718Z,4.25
2023-02-23T07:35:00.730Z,4.22
2023-02-23T07:36:00.735Z,4.22
2023-02-23T07:37:00.756Z,4.25
2023-02-23T07:38:00.760Z,4.30
2023-02-23T07:39:00.776Z,4.25
2023-02-23T07:40:01.347Z,4.32
2023-02-23T07:41:00.795Z,4.31
2023-02-23T07:42:00.813Z,4.32
2023-02-23T07:43:00.813Z,4.32
2023-02-23T07:44:00.827Z,4.39
2023-02-23T07:45:00.835Z,4.42
2023-02-23T07:46:00.869Z,4.46
2023-02-23T07:47:00.858Z,4.48
2023-02-23T07:48:00.889Z,4.52
2023-02-23T07:49:00.878Z,4.56
2023-02-23T07:50:00.891Z,4.64
2023-02-23T07:51:00.901Z,4.63
2023-02-23T07:52:00.918Z,4.60
2023-02-23T07:53:00.927Z,4.76
2023-02-23T07:54:00.937Z,4.74
2023-02-23T07:55:00.943Z,4.78
2023-02-23T07:56:00.957Z,4.76
2023-02-23T07:57:00.975Z,4.75
2023-02-23T07:58:00.981Z,4.68
2023-02-23T07:59:00.992Z,4.86
2023-02-23T08:00:01.001Z,4.83
2023-02-23T08:01:01.077Z,4.89
2023-02-23T08:02:01.024Z,4.95
2023-02-23T08:03:01.033Z,4.89
2023-02-23T08:04:01.112Z,4.86
2023-02-23T08:05:01.057Z,4.95
2023-02-23T08:06:01.069Z,4.97
2023-02-23T08:07:01.090Z,5.05
2023-02-23T08:08:01.088Z,4.97
2023-02-23T08:09:01.122Z,5.02
2023-02-23T08:10:01.116Z,5.07
2023-02-23T08:11:01.136Z,5.12
2023-02-23T08:12:01.150Z,5.13
2023-02-23T08:13:01.236Z,5.15
2023-02-23T08:14:01.170Z,5.18
2023-02-23T08:15:01.170Z,5.16
2023-02-23T08:16:01.180Z,5.19
2023-02-23T08:17:01.225Z,5.23
2023-02-23T08:18:01.200Z,5.22
2023-02-23T08:19:01.212Z,5.25
2023-02-23T08:20:01.224Z,5.23
2023-02-23T08:21:01.240Z,5.33
2023-02-23T08:22:01.247Z,5.36
2023-02-23T08:23:01.258Z,5.36
2023-02-23T08:24:01.270Z,5.37
2023-02-23T08:25:01.287Z,5.40
2023-02-23T08:26:01.304Z,5.46
2023-02-23T08:27:01.304Z,5.46
2023-02-23T08:28:02.318Z,5.49
2023-02-23T08:29:01.327Z,5.56
2023-02-23T08:30:01.345Z,5.59
2023-02-23T08:31:01.439Z,5.59
2023-02-23T08:32:01.550Z,5.58
2023-02-23T08:33:01.378Z,5.62
2023-02-23T08:34:01.386Z,5.65
2023-02-23T08:35:01.397Z,5.56
2023-02-23T08:36:01.417Z,5.59
2023-02-23T08:37:01.431Z,5.65
2023-02-23T08:38:01.467Z,5.62
2023-02-23T08:39:01.444Z,5.69
2023-02-23T08:40:01.474Z,5.73
2023-02-23T08:41:01.467Z,5.76
2023-02-23T08:42:01.478Z,5.74
2023-02-23T08:43:01.491Z,5.74
2023-02-23T08:44:01.502Z,5.83
2023-02-23T08:45:01.531Z,5.72
2023-02-23T08:46:01.545Z,5.83
2023-02-23T08:47:01.538Z,5.84
2023-02-23T08:48:01.563Z,5.88
2023-02-23T08:49:01.561Z,5.79
2023-02-23T08:50:01.568Z,5.83
2023-02-23T08:51:01.585Z,5.92
2023-02-23T08:52:01.594Z,5.99
2023-02-23T08:53:01.608Z,5.88
2023-02-23T08:54:01.623Z,5.94
2023-02-23T08:55:01.631Z,5.91
2023-02-23T08:56:01.646Z,5.94
2023-02-23T08:57:01.651Z,6.05
2023-02-23T08:58:01.684Z,6.05
2023-02-23T08:59:01.677Z,6.05
2023-02-23T09:00:01.689Z,6.10
2023-02-23T09:01:01.723Z,6.17
2023-02-23T09:02:01.713Z,6.16
2023-02-23T09:03:01.724Z,6.19
2023-02-23T09:04:01.735Z,6.19
2023-02-23T09:05:01.785Z,6.15
2023-02-23T09:06:01.773Z,6.17
2023-02-23T09:07:01.858Z,6.29
2023-02-23T09:08:01.786Z,6.28
2023-02-23T09:09:01.800Z,6.32
2023-02-23T09:10:01.816Z,6.31
2023-02-23T09:11:01.821Z,6.28
2023-02-23T09:12:01.835Z,6.35
2023-02-23T09:13:01.848Z,6.39
2023-02-23T09:14:01.860Z,6.36
2023-02-23T09:15:01.870Z,6.46
2023-02-23T09:16:01.922Z,6.53
2023-02-23T09:17:01.897Z,6.49
2023-02-23T09:18:01.909Z,6.44
2023-02-23T09:19:01.921Z,6.56
2023-02-23T09:20:01.937Z,6.56
2023-02-23T09:21:01.958Z,6.57
2023-02-23T09:22:01.963Z,6.59
2023-02-23T09:23:01.968Z,6.70
2023-02-23T09:24:01.984Z,6.75
2023-02-23T09:25:02.003Z,6.72
2023-02-23T09:26:02.012Z,6.80
2023-02-23T09:27:02.029Z,6.87
2023-02-23T09:28:02.036Z,6.86
2023-02-23T09:29:02.053Z,6.85
2023-02-23T09:30:02.101Z,6.96
2023-02-23T09:31:02.210Z,6.89
2023-02-23T09:32:02.251Z,6.90
2023-02-23T09:33:02.101Z,7.00
2023-02-23T09:34:02.114Z,7.05
2023-02-23T09:35:02.134Z,7.04
2023-02-23T09:36:02.140Z,7.08
2023-02-23T09:37:02.153Z,7.07
2023-02-23T09:38:02.174Z,7.22
2023-02-23T09:39:02.205Z,7.21
2023-02-23T09:40:02.188Z,7.22
2023-02-23T09:41:02.208Z,7.21
2023-02-23T09:42:02.218Z,7.21
2023-02-23T09:43:02.237Z,7.23
2023-02-23T09:44:02.247Z,7.26
2023-02-23T09:45:02.259Z,7.33
2023-02-23T09:46:02.379Z,7.40
2023-02-23T09:47:02.295Z,7.44
2023-02-23T09:48:02.315Z,7.44
2023-02-23T09:49:02.310Z,7.43
2023-02-23T09:50:02.325Z,7.59
2023-02-23T09:51:02.343Z,7.55
2023-02-23T09:52:02.357Z,7.66
2023-02-23T09:53:03.022Z,7.64
2023-02-23T09:54:02.385Z,7.62
2023-02-23T09:55:02.390Z,7.75
2023-02-23T09:56:02.410Z,7.77
2023-02-23T09:57:02.424Z,7.75
2023-02-23T09:58:02.435Z,7.85
2023-02-23T09:59:02.449Z,7.85
2023-02-23T10:00:02.468Z,7.90
2023-02-23T10:01:02.479Z,8.03
2023-02-23T10:02:02.495Z,7.99
2023-02-23T10:03:02.504Z,8.08
2023-02-23T10:04:02.519Z,8.11
2023-02-23T10:05:02.601Z,8.23
2023-02-23T10:06:02.550Z,8.23
2023-02-23T10:07:02.585Z,8.26
2023-02-23T10:08:02.580Z,8.31
2023-02-23T10:09:02.595Z,8.39
2023-02-23T10:10:02.624Z,8.49
2023-02-23T10:11:02.619Z,8.50
2023-02-23T10:12:02.633Z,8.60
2023-02-23T10:13:02.649Z,8.57
2023-02-23T10:14:02.667Z,8.60
2023-02-23T10:15:02.679Z,8.68
2023-02-23T10:16:02.710Z,8.71
2023-02-23T10:17:02.707Z,8.75
2023-02-23T10:18:03.383Z,8.77
2023-02-23T10:19:02.739Z,8.86
2023-02-23T10:20:02.749Z,8.87
2023-02-23T10:21:02.762Z,8.87
2023-02-23T10:22:02.789Z,8.95
2023-02-23T10:23:02.797Z,9.00
2023-02-23T10:24:02.811Z,9.11
2023-02-23T10:25:02.828Z,9.08
2023-02-23T10:26:02.838Z,9.19
2023-02-23T10:27:02.853Z,9.16
2023-02-23T10:28:02.895Z,9.16
2023-02-23T10:29:02.883Z,9.27
2023-02-23T10:30:02.902Z,9.31
2023-02-23T10:31:02.936Z,9.33
2023-02-23T10:32:02.985Z,9.33
2023-02-23T10:33:02.949Z,9.51
2023-02-23T10:34:02.962Z,9.49
2023-02-23T10:35:03.004Z,9.49
2023-02-23T10:36:13.034Z,9.55
2023-02-23T10:37:03.008Z,9.58
2023-02-23T10:38:03.039Z,9.74
2023-02-23T10:39:03.042Z,9.73
2023-02-23T10:40:03.048Z,9.73
2023-02-23T10:41:03.063Z,9.77
2023-02-23T10:42:03.079Z,9.77
2023-02-23T10:43:03.097Z,9.87
2023-02-23T10:44:15.741Z,9.91
2023-02-23T10:45:03.126Z,9.95
2023-02-23T10:46:03.140Z,9.97
2023-02-23T10:47:03.155Z,10.03
2023-02-23T10:48:03.194Z,10.09
2023-02-23T10:49:03.197Z,10.07
2023-02-23T10:50:03.222Z,10.13
2023-02-23T10:51:03.294Z,10.10
2023-02-23T10:52:03.251Z,10.20
2023-02-23T10:53:03.252Z,10.25
2023-02-23T10:54:08.003Z,10.30
2023-02-23T10:55:03.283Z,10.38
2023-02-23T10:56:03.315Z,10.36
2023-02-23T10:57:03.311Z,10.33
2023-02-23T10:58:03.333Z,10.45
2023-02-23T10:59:03.346Z,10.42
2023-02-23T11:00:03.387Z,10.42
2023-02-23T11:01:03.391Z,10.48
2023-02-23T11:02:03.449Z,10.51
2023-02-23T11:03:03.442Z,10.55
2023-02-23T11:04:06.233Z,10.58
2023-02-23T11:05:03.523Z,10.65
2023-02-23T11:06:03.453Z,10.69
2023-02-23T11:07:03.472Z,10.68
2023-02-23T11:08:03.504Z,10.76
2023-02-23T11:09:03.504Z,10.75
2023-02-23T11:10:03.524Z,10.83
2023-02-23T11:11:03.538Z,10.84
2023-02-23T11:12:03.551Z,10.76
2023-02-23T11:13:03.568Z,10.89
2023-02-23T11:14:03.584Z,10.95
2023-02-23T11:15:03.611Z,11.00
2023-02-23T11:16:03.640Z,11.00
2023-02-23T11:17:03.636Z,11.01
2023-02-23T11:18:03.653Z,11.20
2023-02-23T11:19:03.675Z,11.15
2023-02-23T11:20:03.705Z,11.22
2023-02-23T11:21:03.701Z,11.22
2023-02-23T11:22:03.720Z,11.23
2023-02-23T11:23:13.980Z,11.30
2023-02-23T11:24:03.754Z,11.35
2023-02-23T11:25:03.775Z,11.33
2023-02-23T11:26:03.800Z,11.37
2023-02-23T11:27:03.840Z,11.35
2023-02-23T11:28:03.823Z,11.45
2023-02-23T11:29:03.839Z,11.52
2023-02-23T11:30:03.855Z,11.49
2023-02-23T11:31:03.925Z,11.59
2023-02-23T11:32:07.422Z,11.56
2023-02-23T11:33:03.919Z,11.68
2023-02-23T11:34:03.927Z,11.68
2023-02-23T11:35:03.939Z,11.70
2023-02-23T11:36:03.959Z,11.78
2023-02-23T11:37:03.982Z,11.89
2023-02-23T11:38:05.476Z,11.86
2023-02-23T11:39:04.014Z,11.93
2023-02-23T11:40:04.042Z,11.89
2023-02-23T11:41:04.047Z,11.86
2023-02-23T11:42:04.063Z,11.95
2023-02-23T11:43:04.078Z,12.03
2023-02-23T11:44:06.044Z,12.07
2023-02-23T11:45:04.112Z,12.03
2023-02-23T11:46:04.186Z,12.17
2023-02-23T11:47:04.201Z,12.15
2023-02-23T11:48:04.164Z,12.20
2023-02-23T11:49:04.188Z,12.26
2023-02-23T11:50:04.214Z,12.28
2023-02-23T11:51:04.220Z,12.36
2023-02-23T11:52:04.238Z,12.43
2023-02-23T11:53:04.265Z,12.40
2023-02-23T11:54:05.510Z,12.45
2023-02-23T11:55:04.297Z,12.43
2023-02-23T11:56:04.313Z,12.47
2023-02-23T11:57:04.328Z,12.66
2023-02-23T11:58:04.348Z,12.63
2023-02-23T11:59:04.367Z,12.63
2023-02-23T12:00:04.385Z,12.69
2023-02-23T12:01:04.410Z,12.69
2023-02-23T12:02:04.421Z,12.76
2023-02-23T12:03:04.479Z,12.78
2023-02-23T12:04:04.472Z,12.73
2023-02-23T12:05:04.506Z,12.93
2023-02-23T12:06:04.493Z,12.78
2023-02-23T12:07:04.510Z,12.81
2023-02-23T12:08:04.569Z,12.88
2023-02-23T12:09:04.562Z,12.88
2023-02-23T12:10:04.588Z,12.83
2023-02-23T12:11:04.589Z,12.91
2023-02-23T12:12:04.608Z,12.98
2023-02-23T12:13:04.621Z,13.02
2023-02-23T12:14:04.649Z,13.01
2023-02-23T12:15:04.660Z,13.05
2023-02-23T12:16:04.746Z,13.12
2023-02-23T12:17:05.345Z,13.12
2023-02-23T12:18:04.728Z,13.16
2023-02-23T12:19:04.733Z,13.09
2023-02-23T12:20:04.754Z,13.16
2023-02-23T12:21:04.778Z,13.19
2023-02-23T12:22:04.791Z,13.12
2023-02-23T12:23:04.814Z,13.17
2023-02-23T12:24:04.828Z,13.20
2023-02-23T12:25:04.874Z,13.21
2023-02-23T12:26:04.868Z,13.13
2023-02-23T12:27:04.885Z,13.16
2023-02-23T12:28:17.872Z,13.17
2023-02-23T12:29:04.923Z,13.17
2023-02-23T12:30:07.556Z,13.13
2023-02-23T12:31:04.957Z,13.12
2023-02-23T12:32:05.087Z,13.11
2023-02-23T12:33:05.000Z,13.17
2023-02-23T12:34:05.015Z,13.21
2023-02-23T12:35:05.030Z,13.28
2023-02-23T12:36:05.048Z,13.21
2023-02-23T12:37:05.064Z,13.28
2023-02-23T12:38:05.084Z,13.23
2023-02-23T12:39:05.111Z,13.30
2023-02-23T12:40:05.121Z,13.24
2023-02-23T12:41:05.147Z,13.26
2023-02-23T12:42:05.159Z,13.28
2023-02-23T12:43:05.175Z,13.12
2023-02-23T12:44:05.198Z,13.27
2023-02-23T12:45:05.214Z,13.26
2023-02-23T12:46:07.427Z,13.24
2023-02-23T12:47:05.245Z,13.30
2023-02-23T12:48:05.264Z,13.19
2023-02-23T12:49:05.291Z,13.09
2023-02-23T12:50:05.304Z,13.26
2023-02-23T12:51:05.325Z,13.21
2023-02-23T12:52:05.336Z,13.28
2023-02-23T12:53:05.357Z,13.30
2023-02-23T12:54:05.374Z,13.27
2023-02-23T12:55:05.393Z,13.16
2023-02-23T12:56:05.408Z,13.17
2023-02-23T12:57:05.428Z,13.17
2023-02-23T12:58:05.448Z,13.09
2023-02-23T12:59:05.465Z,13.09
2023-02-23T13:00:05.487Z,13.16
2023-02-23T13:01:05.515Z,13.21
2023-02-23T13:02:05.575Z,13.09
2023-02-23T13:03:05.562Z,13.19
2023-02-23T13:04:05.560Z,13.13
2023-02-23T13:05:05.584Z,13.19
2023-02-23T13:06:05.606Z,13.20
2023-02-23T13:07:05.612Z,13.11
2023-02-23T13:08:13.244Z,13.13
2023-02-23T13:09:05.651Z,13.12
2023-02-23T13:10:05.668Z,13.12
2023-02-23T13:11:05.686Z,13.13
2023-02-23T13:12:05.704Z,13.21
2023-02-23T13:13:05.728Z,13.16
2023-02-23T13:14:05.748Z,13.08
2023-02-23T13:15:05.764Z,13.09